MMGM/GYM METAR and TAF weather

Enter ICAO airport designator
Station Type Date Time Source
MMGM METAR 2019/10/18 01:41 UTC NOAA

MMGM 180141Z 00000KT 10SM SKC 29/23 A2968


Station Type Date Time Source
MMGM Decoded METAR 2019/10/18 01:41 UTC NOAA

Guaymas International Airport, Mexico (MMGM) 27-58N 110-56W
Oct 17, 2019 - 09:41 PM EDT / 2019.10.18 0141 UTC
Wind: Calm:0
Visibility: 10 mile(s):0
Sky conditions: clear
Temperature: 84 F (29 C)
Dew Point: 73 F (23 C)
Relative Humidity: 70%
Pressure (altimeter): 29.68 in. Hg (1005 hPa)
ob: MMGM 180141Z 00000KT 10SM SKC 29/23 A2968
cycle: 1

Station Type Date Time Source
MMGM TAF 2019/10/18 06:45 UTC NOAA

TAF MMGM 180539Z 1806/1906 00000KT P6SM SKC
FM181800 20010KT P6SM SKC
FM190300 24005KT P6SM SKC

Example: see airport list